sensor_id;sensor_type;location;lat;lon;timestamp;pressure;altitude;pressure_sealevel;temperature;humidity
56713;BME280;42589;45.536;9.032;2022-07-06T20:21:59;99622.56;;;36.32;32.44
56713;BME280;42589;45.536;9.032;2022-07-06T20:25:01;99633.94;;;36.39;32.13
56713;BME280;42589;45.536;9.032;2022-07-06T20:28:01;99622.56;;;36.32;32.43
56713;BME280;42589;45.536;9.032;2022-07-06T20:31:02;99622.06;;;36.30;32.54
56713;BME280;42589;45.536;9.032;2022-07-06T20:34:03;99638.66;;;36.39;32.35
56713;BME280;42589;45.536;9.032;2022-07-06T20:37:04;99628.75;;;36.20;32.85
56713;BME280;42589;45.536;9.032;2022-07-06T20:40:06;99636.56;;;36.27;32.59
56713;BME280;42589;45.536;9.032;2022-07-06T20:43:06;99642.59;;;36.12;33.03
56713;BME280;42589;45.536;9.032;2022-07-06T20:46:08;99648.78;;;36.26;32.56
56713;BME280;42589;45.536;9.032;2022-07-06T20:49:09;99647.16;;;36.16;33.19
56713;BME280;42589;45.536;9.032;2022-07-06T20:52:11;99651.84;;;36.24;32.53
56713;BME280;42589;45.536;9.032;2022-07-06T20:55:12;99648.78;;;36.17;32.77
56713;BME280;42589;45.536;9.032;2022-07-06T20:58:13;99658.84;;;35.96;33.61
56713;BME280;42589;45.536;9.032;2022-07-06T21:01:14;99645.00;;;35.96;33.21
56713;BME280;42589;45.536;9.032;2022-07-06T21:04:16;99660.28;;;35.93;33.36
56713;BME280;42589;45.536;9.032;2022-07-06T21:07:17;99654.81;;;36.02;33.12
56713;BME280;42589;45.536;9.032;2022-07-06T21:10:18;99652.50;;;35.95;32.86
56713;BME280;42589;45.536;9.032;2022-07-06T21:13:18;99649.56;;;35.92;33.11
56713;BME280;42589;45.536;9.032;2022-07-06T21:16:19;99659.69;;;36.05;32.76
56713;BME280;42589;45.536;9.032;2022-07-06T21:19:19;99667.47;;;35.94;33.66
56713;BME280;42589;45.536;9.032;2022-07-06T21:22:21;99661.59;;;35.87;33.51
56713;BME280;42589;45.536;9.032;2022-07-06T21:25:22;99656.69;;;35.58;33.84
56713;BME280;42589;45.536;9.032;2022-07-06T21:28:23;99655.81;;;35.49;34.16
56713;BME280;42589;45.536;9.032;2022-07-06T21:31:24;99673.59;;;35.56;33.59
56713;BME280;42589;45.536;9.032;2022-07-06T21:34:25;99665.97;;;35.62;33.62
56713;BME280;42589;45.536;9.032;2022-07-06T21:37:26;99659.31;;;35.72;33.59
56713;BME280;42589;45.536;9.032;2022-07-06T21:40:27;99667.47;;;35.68;33.69
56713;BME280;42589;45.536;9.032;2022-07-06T21:43:29;99663.72;;;35.99;33.08
56713;BME280;42589;45.536;9.032;2022-07-06T21:46:29;99679.03;;;35.88;33.38
56713;BME280;42589;45.536;9.032;2022-07-06T21:49:30;99678.84;;;35.93;33.05
56713;BME280;42589;45.536;9.032;2022-07-06T21:52:31;99675.59;;;35.91;33.40
56713;BME280;42589;45.536;9.032;2022-07-06T21:55:32;99691.03;;;35.83;33.88
56713;BME280;42589;45.536;9.032;2022-07-06T21:58:33;99683.88;;;35.82;33.50
56713;BME280;42589;45.536;9.032;2022-07-06T22:01:34;99685.31;;;35.71;33.26
56713;BME280;42589;45.536;9.032;2022-07-06T22:04:35;99675.88;;;35.63;33.34
56713;BME280;42589;45.536;9.032;2022-07-06T22:07:36;99682.88;;;35.61;33.63
56713;BME280;42589;45.536;9.032;2022-07-06T22:10:37;99679.97;;;35.66;33.86
56713;BME280;42589;45.536;9.032;2022-07-06T22:13:39;99684.03;;;35.60;33.93
56713;BME280;42589;45.536;9.032;2022-07-06T22:16:43;99680.88;;;35.52;33.67
56713;BME280;42589;45.536;9.032;2022-07-06T22:19:44;99686.84;;;35.46;33.90
56713;BME280;42589;45.536;9.032;2022-07-06T22:22:48;99695.09;;;35.28;33.86
56713;BME280;42589;45.536;9.032;2022-07-06T22:25:49;99694.16;;;35.42;33.91
56713;BME280;42589;45.536;9.032;2022-07-06T22:28:50;99705.38;;;35.37;33.85
56713;BME280;42589;45.536;9.032;2022-07-06T22:31:51;99697.75;;;35.33;33.93
56713;BME280;42589;45.536;9.032;2022-07-06T22:34:53;99694.44;;;35.23;34.13
56713;BME280;42589;45.536;9.032;2022-07-06T22:37:53;99689.16;;;35.04;34.27
56713;BME280;42589;45.536;9.032;2022-07-06T22:40:54;99688.13;;;35.00;34.43
56713;BME280;42589;45.536;9.032;2022-07-06T22:44:00;99685.00;;;34.61;34.94
56713;BME280;42589;45.536;9.032;2022-07-06T22:47:01;99688.13;;;34.69;34.76
56713;BME280;42589;45.536;9.032;2022-07-06T22:50:02;99689.00;;;34.78;34.75
56713;BME280;42589;45.536;9.032;2022-07-06T22:53:04;99680.53;;;34.74;34.95
56713;BME280;42589;45.536;9.032;2022-07-06T22:56:07;99674.44;;;34.18;36.05
56713;BME280;42589;45.536;9.032;2022-07-06T22:59:09;99685.69;;;34.45;35.77
56713;BME280;42589;45.536;9.032;2022-07-06T23:02:10;99682.94;;;34.45;35.48
56713;BME280;42589;45.536;9.032;2022-07-06T23:05:11;99687.56;;;34.35;35.58
56713;BME280;42589;45.536;9.032;2022-07-06T23:08:16;99680.53;;;34.52;35.37
56713;BME280;42589;45.536;9.032;2022-07-06T23:11:18;99669.75;;;34.41;35.45
56713;BME280;42589;45.536;9.032;2022-07-06T23:14:19;99678.50;;;34.57;35.27
56713;BME280;42589;45.536;9.032;2022-07-06T23:17:21;99666.22;;;34.05;36.58
56713;BME280;42589;45.536;9.032;2022-07-06T23:20:22;99675.19;;;33.96;36.97
56713;BME280;42589;45.536;9.032;2022-07-06T23:23:22;99680.47;;;33.70;37.43
56713;BME280;42589;45.536;9.032;2022-07-06T23:26:24;99684.09;;;33.93;37.12
56713;BME280;42589;45.536;9.032;2022-07-06T23:29:26;99681.47;;;33.74;37.54
56713;BME280;42589;45.536;9.032;2022-07-06T23:32:27;99672.72;;;33.59;38.09
56713;BME280;42589;45.536;9.032;2022-07-06T23:35:28;99675.91;;;33.52;38.40
56713;BME280;42589;45.536;9.032;2022-07-06T23:38:29;99677.72;;;33.29;38.04
56713;BME280;42589;45.536;9.032;2022-07-06T23:41:30;99677.03;;;33.51;38.07
56713;BME280;42589;45.536;9.032;2022-07-06T23:44:31;99681.41;;;33.66;37.21
56713;BME280;42589;45.536;9.032;2022-07-06T23:47:34;99681.22;;;33.62;37.41
56713;BME280;42589;45.536;9.032;2022-07-06T23:50:35;99686.28;;;33.83;37.52
56713;BME280;42589;45.536;9.032;2022-07-06T23:53:36;99673.53;;;33.73;37.05
56713;BME280;42589;45.536;9.032;2022-07-06T23:56:37;99675.47;;;33.59;37.66
56713;BME280;42589;45.536;9.032;2022-07-06T23:59:38;99683.03;;;33.39;38.15
